Time;durP1;ratioP1;P1;durP2;ratioP2;P2;SDS_P1;SDS_P2;PMS_P1;PMS_P2;Temp;Humidity;BMP_temperature;BMP_pressure;BME280_temperature;BME280_humidity;BME280_pressure;Samples;Min_cycle;Max_cycle;Signal;HPM_P1;HPM_P2
2021/11/21 00:01:58;;;;;;;31.13;19.43;;;;;;;;;;5114048;28;20604;-75
2021/11/21 00:04:25;;;;;;;32.80;19.10;;;;;;;;;;5114098;28;20260;-75
2021/11/21 00:06:52;;;;;;;29.40;17.30;;;;;;;;;;5113440;28;20243;-75
2021/11/21 00:09:20;;;;;;;29.00;17.17;;;;;;;;;;5120296;27;20256;-75
2021/11/21 00:11:47;;;;;;;27.00;17.93;;;;;;;;;;5113597;28;20238;-75
2021/11/21 00:14:14;;;;;;;26.83;17.37;;;;;;;;;;5113365;28;20209;-75
2021/11/21 00:16:43;;;;;;;27.77;17.33;;;;;;;;;;5121760;27;20283;-75
2021/11/21 00:19:10;;;;;;;25.20;16.00;;;;;;;;;;5125507;27;20310;-75
2021/11/21 00:21:38;;;;;;;28.97;17.53;;;;;;;;;;5112909;28;20280;-75
2021/11/21 00:24:05;;;;;;;30.30;17.43;;;;;;;;;;5113324;27;20299;-75
2021/11/21 00:26:33;;;;;;;27.10;16.53;;;;;;;;;;5113379;27;20228;-75
2021/11/21 00:29:00;;;;;;;28.77;17.63;;;;;;;;;;5113281;28;20732;-75
2021/11/21 00:31:27;;;;;;;27.80;16.43;;;;;;;;;;5113629;28;20291;-75
2021/11/21 00:33:56;;;;;;;29.67;18.00;;;;;;;;;;5112611;28;20303;-75
2021/11/21 00:36:23;;;;;;;26.63;17.17;;;;;;;;;;5113206;27;20279;-75
2021/11/21 00:38:50;;;;;;;29.33;17.80;;;;;;;;;;5113288;28;20303;-75
2021/11/21 00:41:17;;;;;;;29.50;18.13;;;;;;;;;;5112771;27;20292;-75
2021/11/21 00:43:44;;;;;;;28.80;17.50;;;;;;;;;;5113075;28;20767;-75
2021/11/21 00:46:12;;;;;;;31.00;17.17;;;;;;;;;;5112842;28;20208;-75
2021/11/21 00:48:39;;;;;;;28.93;16.93;;;;;;;;;;5113119;28;20232;-75
2021/11/21 00:51:07;;;;;;;29.00;17.13;;;;;;;;;;5112350;27;20673;-75
2021/11/21 00:53:36;;;;;;;30.90;18.07;;;;;;;;;;5112898;28;20205;-75
2021/11/21 00:56:04;;;;;;;30.10;17.80;;;;;;;;;;5112675;28;20236;-75
2021/11/21 00:58:32;;;;;;;29.63;17.73;;;;;;;;;;5112521;28;20250;-75
2021/11/21 01:01:00;;;;;;;32.57;19.30;;;;;;;;;;5101400;27;20235;-75
2021/11/21 01:03:28;;;;;;;41.40;23.27;;;;;;;;;;5123720;27;20290;-75
2021/11/21 01:05:56;;;;;;;31.43;18.30;;;;;;;;;;5112304;28;20292;-75
2021/11/21 01:08:25;;;;;;;29.37;18.07;;;;;;;;;;5105100;27;20280;-75
2021/11/21 01:10:53;;;;;;;30.80;17.77;;;;;;;;;;5125164;27;20232;-75
2021/11/21 01:13:20;;;;;;;31.40;18.37;;;;;;;;;;5120293;27;20288;-75
2021/11/21 01:15:47;;;;;;;30.37;17.40;;;;;;;;;;5112134;28;20759;-75
2021/11/21 01:18:15;;;;;;;29.83;17.93;;;;;;;;;;5111134;28;20208;-76
2021/11/21 01:20:42;;;;;;;30.80;18.40;;;;;;;;;;5116405;27;20562;-75
2021/11/21 01:23:11;;;;;;;31.47;18.27;;;;;;;;;;5112179;28;20196;-75
2021/11/21 01:25:40;;;;;;;30.83;19.00;;;;;;;;;;5111790;28;20593;-75
2021/11/21 01:28:07;;;;;;;31.17;19.03;;;;;;;;;;5111461;28;20300;-75
2021/11/21 01:30:34;;;;;;;32.07;17.80;;;;;;;;;;5130121;27;20286;-76
2021/11/21 01:33:03;;;;;;;32.00;19.20;;;;;;;;;;5127588;27;20312;-75
2021/11/21 01:35:31;;;;;;;34.33;19.53;;;;;;;;;;5112380;28;20285;-75
2021/11/21 01:37:58;;;;;;;30.40;17.90;;;;;;;;;;5111422;28;20280;-75
2021/11/21 01:40:26;;;;;;;30.13;17.93;;;;;;;;;;5111700;28;20294;-75
2021/11/21 01:42:55;;;;;;;28.97;17.67;;;;;;;;;;5128026;27;20287;-75
2021/11/21 01:45:22;;;;;;;31.97;18.43;;;;;;;;;;5131093;27;20220;-75
2021/11/21 01:47:50;;;;;;;33.27;18.77;;;;;;;;;;5120524;27;20685;-75
2021/11/21 01:50:18;;;;;;;33.67;18.63;;;;;;;;;;5111576;28;20230;-75
2021/11/21 01:52:45;;;;;;;32.63;18.30;;;;;;;;;;5112260;28;20232;-75
2021/11/21 01:55:13;;;;;;;29.87;17.30;;;;;;;;;;5111924;28;20252;-75
2021/11/21 01:57:40;;;;;;;32.87;19.07;;;;;;;;;;5111981;28;20292;-75
2021/11/21 02:00:10;;;;;;;30.87;18.80;;;;;;;;;;5111657;28;20637;-75
2021/11/21 02:02:38;;;;;;;34.03;18.83;;;;;;;;;;5115494;28;20204;-75
2021/11/21 02:05:05;;;;;;;32.50;19.17;;;;;;;;;;5105475;28;20566;-75
2021/11/21 02:07:33;;;;;;;31.40;17.87;;;;;;;;;;5111205;28;20285;-75
2021/11/21 02:10:00;;;;;;;37.40;19.63;;;;;;;;;;5122124;28;20291;-75
2021/11/21 02:12:27;;;;;;;36.10;18.93;;;;;;;;;;5134000;27;20284;-75
2021/11/21 02:14:55;;;;;;;38.20;20.47;;;;;;;;;;5117487;27;20220;-75
2021/11/21 02:17:26;;;;;;;33.20;18.40;;;;;;;;;;5126729;27;20687;-75
2021/11/21 02:19:54;;;;;;;33.50;19.37;;;;;;;;;;5129569;27;20247;-75
2021/11/21 02:22:23;;;;;;;37.70;19.93;;;;;;;;;;5115440;28;20579;-75
2021/11/21 02:24:50;;;;;;;34.23;18.57;;;;;;;;;;5115778;27;20315;-75
2021/11/21 02:27:19;;;;;;;35.83;19.80;;;;;;;;;;5116054;28;20288;-75
2021/11/21 02:29:46;;;;;;;33.27;18.67;;;;;;;;;;5115739;28;20623;-75
2021/11/21 02:32:13;;;;;;;34.83;19.13;;;;;;;;;;5125711;27;20393;-76
2021/11/21 02:34:40;;;;;;;37.13;18.33;;;;;;;;;;5125143;27;20270;-75
2021/11/21 02:37:08;;;;;;;36.17;19.07;;;;;;;;;;5115710;28;20215;-75
2021/11/21 02:39:37;;;;;;;37.63;19.57;;;;;;;;;;5120382;27;20233;-75
2021/11/21 02:42:05;;;;;;;35.10;19.27;;;;;;;;;;5119046;27;20232;-75
2021/11/21 02:44:32;;;;;;;36.47;18.90;;;;;;;;;;5135183;27;20238;-76
2021/11/21 02:46:59;;;;;;;39.63;19.03;;;;;;;;;;5115240;28;20561;-75
2021/11/21 02:49:27;;;;;;;43.17;20.47;;;;;;;;;;5115131;27;20281;-75
2021/11/21 02:51:54;;;;;;;35.13;18.87;;;;;;;;;;5115207;28;20284;-75
2021/11/21 02:54:21;;;;;;;36.63;19.07;;;;;;;;;;5114610;28;20835;-75
2021/11/21 02:56:50;;;;;;;36.90;19.93;;;;;;;;;;5121596;27;20292;-75
2021/11/21 02:59:25;;;;;;;35.70;19.17;;;;;;;;;;5114689;28;20288;-75
2021/11/21 03:01:52;;;;;;;38.83;19.50;;;;;;;;;;5114159;28;20207;-75
2021/11/21 03:04:22;;;;;;;39.20;19.90;;;;;;;;;;5114678;28;20232;-75
2021/11/21 03:06:49;;;;;;;41.43;20.33;;;;;;;;;;5114478;28;20247;-75
2021/11/21 03:09:21;;;;;;;36.40;18.93;;;;;;;;;;5120890;27;20288;-75
2021/11/21 03:11:50;;;;;;;43.33;19.47;;;;;;;;;;5114749;28;20328;-75
2021/11/21 03:14:19;;;;;;;39.70;19.47;;;;;;;;;;5114945;28;20311;-75
2021/11/21 03:16:47;;;;;;;37.50;19.40;;;;;;;;;;5121050;27;20207;-75
2021/11/21 03:19:14;;;;;;;39.00;19.80;;;;;;;;;;5114754;27;20225;-75
2021/11/21 03:21:42;;;;;;;39.27;20.10;;;;;;;;;;5114591;27;20731;-75
2021/11/21 03:24:09;;;;;;;36.73;19.20;;;;;;;;;;5114794;28;20292;-75
2021/11/21 03:26:36;;;;;;;40.60;20.13;;;;;;;;;;5114880;28;20312;-75
2021/11/21 03:29:06;;;;;;;38.80;20.27;;;;;;;;;;5114043;28;20280;-75
2021/11/21 03:31:34;;;;;;;38.47;19.50;;;;;;;;;;5094720;28;20292;-75
2021/11/21 03:34:01;;;;;;;38.60;19.97;;;;;;;;;;5094322;28;20285;-75
2021/11/21 03:36:28;;;;;;;39.10;19.50;;;;;;;;;;5094229;28;20300;-75
2021/11/21 03:38:56;;;;;;;37.80;20.20;;;;;;;;;;5094191;28;20642;-75
2021/11/21 03:41:23;;;;;;;40.17;20.40;;;;;;;;;;5112657;28;20737;-75
2021/11/21 03:43:50;;;;;;;39.90;20.97;;;;;;;;;;5114294;28;20626;-75
2021/11/21 03:46:19;;;;;;;43.87;21.87;;;;;;;;;;5114550;28;20217;-75
2021/11/21 03:48:46;;;;;;;46.33;22.03;;;;;;;;;;5113857;28;20289;-75
2021/11/21 03:51:13;;;;;;;42.73;21.47;;;;;;;;;;5130263;27;20292;-75
2021/11/21 03:53:41;;;;;;;41.03;20.73;;;;;;;;;;5117032;27;20225;-75
2021/11/21 03:56:08;;;;;;;40.37;21.47;;;;;;;;;;5113670;28;20568;-75
2021/11/21 03:58:35;;;;;;;40.77;20.60;;;;;;;;;;5113811;28;20566;-75
2021/11/21 04:01:02;;;;;;;39.07;19.80;;;;;;;;;;5113904;28;20284;-75
2021/11/21 04:03:31;;;;;;;39.77;19.47;;;;;;;;;;5113945;28;20248;-75
2021/11/21 04:05:58;;;;;;;42.77;19.90;;;;;;;;;;5113680;28;20308;-76
2021/11/21 04:08:25;;;;;;;42.23;20.47;;;;;;;;;;5113151;28;20821;-75
2021/11/21 04:10:54;;;;;;;40.60;20.03;;;;;;;;;;5113607;28;20304;-75
2021/11/21 04:13:21;;;;;;;43.67;20.40;;;;;;;;;;5113100;28;20212;-75
2021/11/21 04:15:48;;;;;;;40.90;20.13;;;;;;;;;;5113498;28;20309;-75
2021/11/21 04:18:15;;;;;;;45.33;20.77;;;;;;;;;;5113591;28;20284;-75
2021/11/21 04:20:44;;;;;;;46.47;21.07;;;;;;;;;;5113577;28;20304;-75
2021/11/21 04:23:11;;;;;;;50.07;20.90;;;;;;;;;;5113624;28;20718;-75
2021/11/21 04:25:38;;;;;;;46.30;20.53;;;;;;;;;;5123657;27;20275;-76
2021/11/21 04:28:05;;;;;;;48.37;20.47;;;;;;;;;;5123163;27;20626;-75
2021/11/21 04:30:33;;;;;;;48.77;20.23;;;;;;;;;;5115845;27;20232;-76
2021/11/21 04:33:00;;;;;;;48.63;20.47;;;;;;;;;;5116630;27;20610;-75
2021/11/21 04:35:27;;;;;;;51.57;20.83;;;;;;;;;;5129813;27;20276;-75
2021/11/21 04:37:56;;;;;;;51.93;22.23;;;;;;;;;;5115862;27;20297;-75
2021/11/21 04:40:23;;;;;;;47.27;20.70;;;;;;;;;;5112963;28;20885;-75
2021/11/21 04:42:51;;;;;;;48.53;20.60;;;;;;;;;;5112899;28;20288;-75
2021/11/21 04:45:18;;;;;;;49.97;20.67;;;;;;;;;;5112933;28;20889;-75
2021/11/21 04:47:45;;;;;;;46.17;21.27;;;;;;;;;;5117190;27;20679;-75
2021/11/21 04:50:13;;;;;;;49.00;19.87;;;;;;;;;;5129078;27;20284;-75
2021/11/21 04:52:41;;;;;;;49.27;20.37;;;;;;;;;;5133354;27;20284;-75
2021/11/21 04:55:10;;;;;;;48.70;20.30;;;;;;;;;;5133162;27;20653;-75
2021/11/21 04:57:39;;;;;;;45.97;19.70;;;;;;;;;;5126331;27;20639;-75
2021/11/21 05:00:08;;;;;;;49.10;20.50;;;;;;;;;;5112173;28;20209;-76
2021/11/21 05:02:39;;;;;;;46.23;19.73;;;;;;;;;;5117318;27;20278;-75
2021/11/21 05:05:07;;;;;;;50.80;20.43;;;;;;;;;;5111708;28;20223;-76
2021/11/21 05:07:34;;;;;;;51.00;20.80;;;;;;;;;;5111933;27;20284;-75
2021/11/21 05:10:01;;;;;;;47.00;19.93;;;;;;;;;;5114295;27;20288;-75
2021/11/21 05:12:30;;;;;;;50.97;20.50;;;;;;;;;;5112368;28;20256;-75
2021/11/21 05:14:59;;;;;;;50.17;20.87;;;;;;;;;;5112754;28;20739;-75
2021/11/21 05:17:26;;;;;;;52.13;20.53;;;;;;;;;;5112447;28;20323;-75
2021/11/21 05:19:53;;;;;;;51.03;20.30;;;;;;;;;;5117004;27;20779;-75
2021/11/21 05:22:21;;;;;;;51.57;21.03;;;;;;;;;;5133024;27;20288;-75
2021/11/21 05:24:48;;;;;;;48.83;20.03;;;;;;;;;;5132656;27;20288;-75
2021/11/21 05:27:15;;;;;;;50.60;20.67;;;;;;;;;;5133138;27;20763;-75
2021/11/21 05:29:44;;;;;;;45.77;20.07;;;;;;;;;;5126078;27;20673;-75
2021/11/21 05:32:11;;;;;;;42.37;19.63;;;;;;;;;;5112426;28;20743;-75
2021/11/21 05:34:38;;;;;;;48.57;19.30;;;;;;;;;;5112086;28;20693;-75
2021/11/21 05:37:06;;;;;;;48.37;20.30;;;;;;;;;;5125988;27;20655;-75
2021/11/21 05:39:33;;;;;;;45.83;20.07;;;;;;;;;;5112159;28;20301;-75
2021/11/21 05:42:00;;;;;;;44.80;20.23;;;;;;;;;;5103507;27;20293;-75
2021/11/21 05:44:27;;;;;;;46.23;19.57;;;;;;;;;;5111459;28;20289;-76
2021/11/21 05:46:56;;;;;;;44.40;19.37;;;;;;;;;;5111452;28;20222;-75
2021/11/21 05:49:23;;;;;;;44.07;19.70;;;;;;;;;;5111823;28;20289;-75
2021/11/21 05:51:50;;;;;;;45.77;19.50;;;;;;;;;;5112251;28;20284;-76
2021/11/21 05:54:17;;;;;;;42.50;19.27;;;;;;;;;;5112088;28;20292;-75
2021/11/21 05:56:44;;;;;;;40.10;19.70;;;;;;;;;;5107758;28;20281;-75
2021/11/21 05:59:11;;;;;;;40.83;19.80;;;;;;;;;;5095832;28;20292;-75
2021/11/21 06:01:39;;;;;;;44.17;20.00;;;;;;;;;;5101502;28;20318;-75
2021/11/21 06:04:07;;;;;;;44.37;20.13;;;;;;;;;;5119469;28;20231;-75
2021/11/21 06:06:35;;;;;;;41.13;19.27;;;;;;;;;;5111444;28;20311;-75
2021/11/21 06:09:02;;;;;;;42.73;19.73;;;;;;;;;;5111399;28;20289;-76
2021/11/21 06:11:29;;;;;;;43.80;19.53;;;;;;;;;;5112412;28;20211;-75
2021/11/21 06:13:57;;;;;;;40.37;19.47;;;;;;;;;;5111415;28;20743;-76
2021/11/21 06:16:24;;;;;;;48.03;20.50;;;;;;;;;;5111969;28;20628;-74
2021/11/21 06:18:51;;;;;;;51.63;21.80;;;;;;;;;;5111135;28;20255;-75
2021/11/21 06:21:19;;;;;;;42.80;19.80;;;;;;;;;;5111703;28;20281;-74
2021/11/21 06:23:47;;;;;;;45.00;20.83;;;;;;;;;;5110554;28;20292;-75
2021/11/21 06:26:14;;;;;;;50.07;21.57;;;;;;;;;;5110243;28;20253;-75
2021/11/21 06:28:41;;;;;;;42.40;20.33;;;;;;;;;;5110426;28;20280;-74
2021/11/21 06:31:08;;;;;;;42.30;19.30;;;;;;;;;;5110392;28;20225;-74
2021/11/21 06:33:36;;;;;;;43.57;19.63;;;;;;;;;;5110564;28;20204;-72
2021/11/21 06:36:03;;;;;;;42.93;20.43;;;;;;;;;;5111571;28;20229;-74
2021/11/21 06:38:32;;;;;;;43.57;19.20;;;;;;;;;;5111018;28;20202;-74
2021/11/21 06:41:00;;;;;;;42.80;19.63;;;;;;;;;;5111598;28;20772;-75
2021/11/21 06:43:27;;;;;;;46.93;19.77;;;;;;;;;;5111860;28;20282;-74
2021/11/21 06:45:54;;;;;;;49.67;21.40;;;;;;;;;;5111431;28;20261;-74
2021/11/21 06:48:22;;;;;;;45.77;20.90;;;;;;;;;;5110988;28;20308;-74
2021/11/21 06:50:52;;;;;;;49.23;21.67;;;;;;;;;;5111637;28;20205;-75
2021/11/21 06:53:20;;;;;;;62.60;22.27;;;;;;;;;;5111023;28;20227;-75
2021/11/21 06:55:48;;;;;;;53.30;21.13;;;;;;;;;;5111701;28;20737;-74
2021/11/21 06:58:15;;;;;;;48.50;22.00;;;;;;;;;;5112448;28;20208;-75
2021/11/21 07:00:43;;;;;;;76.50;21.40;;;;;;;;;;5115583;28;20198;-75
2021/11/21 07:03:10;;;;;;;44.77;20.23;;;;;;;;;;5121158;27;20284;-73
2021/11/21 07:05:37;;;;;;;57.43;21.33;;;;;;;;;;5096667;28;20662;-72
2021/11/21 07:08:04;;;;;;;58.47;22.30;;;;;;;;;;5114293;28;20736;-75
2021/11/21 07:10:32;;;;;;;52.30;20.23;;;;;;;;;;5114455;28;20244;-72
2021/11/21 07:13:02;;;;;;;75.30;22.00;;;;;;;;;;5115239;28;20285;-75
2021/11/21 07:15:30;;;;;;;56.60;21.93;;;;;;;;;;5113821;28;20288;-75
2021/11/21 07:17:57;;;;;;;43.63;20.73;;;;;;;;;;5114831;28;20284;-74
2021/11/21 07:20:24;;;;;;;72.20;19.50;;;;;;;;;;5114264;28;20317;-74
2021/11/21 07:22:52;;;;;;;57.07;20.00;;;;;;;;;;5114253;28;20288;-74
2021/11/21 07:25:20;;;;;;;67.43;18.50;;;;;;;;;;5115192;28;20289;-74
2021/11/21 07:27:48;;;;;;;121.63;19.60;;;;;;;;;;5114456;28;20858;-75
2021/11/21 07:30:18;;;;;;;84.90;17.60;;;;;;;;;;5114850;28;20666;-74
2021/11/21 07:32:46;;;;;;;156.63;17.93;;;;;;;;;;5121259;27;20283;-74
2021/11/21 07:35:14;;;;;;;103.67;15.87;;;;;;;;;;5127865;27;20284;-75
2021/11/21 07:37:41;;;;;;;96.17;16.63;;;;;;;;;;5114430;28;20200;-75
2021/11/21 07:40:10;;;;;;;62.43;15.87;;;;;;;;;;5121142;27;20208;-74
2021/11/21 07:42:37;;;;;;;65.27;15.37;;;;;;;;;;5114354;28;20209;-75
2021/11/21 07:45:05;;;;;;;157.60;18.10;;;;;;;;;;5114608;28;20292;-74
2021/11/21 07:47:33;;;;;;;133.73;16.67;;;;;;;;;;5114536;28;20224;-75
2021/11/21 07:50:01;;;;;;;206.20;19.87;;;;;;;;;;5113448;28;20729;-74
2021/11/21 07:52:28;;;;;;;79.43;15.87;;;;;;;;;;5114663;28;20252;-72
2021/11/21 07:54:55;;;;;;;105.93;14.67;;;;;;;;;;5114296;28;20229;-75
2021/11/21 07:57:22;;;;;;;83.77;14.60;;;;;;;;;;5114545;28;20198;-75
2021/11/21 07:59:49;;;;;;;74.63;14.47;;;;;;;;;;5114161;28;20557;-75
2021/11/21 08:02:17;;;;;;;88.97;13.90;;;;;;;;;;5114369;28;20229;-72
2021/11/21 08:04:45;;;;;;;42.00;11.83;;;;;;;;;;5113646;28;20299;-75
2021/11/21 08:07:12;;;;;;;41.27;10.67;;;;;;;;;;5120162;27;20311;-75
2021/11/21 08:09:40;;;;;;;80.87;13.53;;;;;;;;;;5123486;27;20286;-75
2021/11/21 08:12:07;;;;;;;109.27;13.23;;;;;;;;;;5113510;28;20229;-75
2021/11/21 08:14:34;;;;;;;79.50;12.60;;;;;;;;;;5104803;28;20301;-75
2021/11/21 08:17:02;;;;;;;70.90;12.57;;;;;;;;;;5113427;28;20233;-75
2021/11/21 08:19:29;;;;;;;139.57;14.63;;;;;;;;;;5113051;28;20565;-75
2021/11/21 08:21:57;;;;;;;38.40;13.23;;;;;;;;;;5112474;28;20736;-74
2021/11/21 08:24:24;;;;;;;31.47;12.17;;;;;;;;;;5112556;27;20301;-75
2021/11/21 08:26:52;;;;;;;95.80;14.17;;;;;;;;;;5112604;28;20319;-75
2021/11/21 08:29:19;;;;;;;54.53;11.83;;;;;;;;;;5112520;28;20190;-75
2021/11/21 08:31:48;;;;;;;52.90;11.67;;;;;;;;;;5112411;28;20220;-73
2021/11/21 08:34:18;;;;;;;53.90;11.70;;;;;;;;;;5111760;28;20624;-73
2021/11/21 08:36:46;;;;;;;64.10;11.70;;;;;;;;;;5112086;28;20749;-73
2021/11/21 08:39:15;;;;;;;47.13;11.80;;;;;;;;;;5112941;27;21805;-74
2021/11/21 08:41:42;;;;;;;54.00;12.23;;;;;;;;;;5112407;28;20280;-73
2021/11/21 08:44:09;;;;;;;36.77;10.97;;;;;;;;;;5108844;28;20224;-73
2021/11/21 08:46:37;;;;;;;25.37;11.20;;;;;;;;;;5112118;28;20296;-73
2021/11/21 08:49:04;;;;;;;32.40;11.90;;;;;;;;;;5112807;28;20208;-73
2021/11/21 08:51:31;;;;;;;16.67;10.40;;;;;;;;;;5118075;27;20872;-73
2021/11/21 08:53:58;;;;;;;24.13;9.43;;;;;;;;;;5116115;27;20280;-74
2021/11/21 08:56:27;;;;;;;23.37;9.80;;;;;;;;;;5118075;27;20193;-74
2021/11/21 08:58:54;;;;;;;25.30;9.70;;;;;;;;;;5133491;27;20293;-73
2021/11/21 09:01:21;;;;;;;22.67;9.53;;;;;;;;;;5114584;27;20206;-73
2021/11/21 09:03:48;;;;;;;21.00;8.97;;;;;;;;;;5112592;28;20327;-73
2021/11/21 09:06:16;;;;;;;14.93;8.90;;;;;;;;;;5112178;28;20233;-74
2021/11/21 09:08:43;;;;;;;18.20;8.57;;;;;;;;;;5112603;28;20625;-73
2021/11/21 09:11:10;;;;;;;16.20;8.77;;;;;;;;;;5112179;28;20284;-73
2021/11/21 09:13:39;;;;;;;14.03;8.87;;;;;;;;;;5111454;28;20229;-73
2021/11/21 09:16:08;;;;;;;20.57;9.07;;;;;;;;;;5112692;28;20195;-74
2021/11/21 09:18:35;;;;;;;29.37;10.10;;;;;;;;;;5112057;28;20240;-75
2021/11/21 09:21:02;;;;;;;19.97;9.40;;;;;;;;;;5112625;28;20286;-75
2021/11/21 09:23:30;;;;;;;29.53;9.63;;;;;;;;;;5112220;28;20234;-75
2021/11/21 09:25:57;;;;;;;16.93;10.00;;;;;;;;;;5112171;28;20229;-75
2021/11/21 09:28:25;;;;;;;12.63;9.37;;;;;;;;;;5112524;28;20667;-75
2021/11/21 09:30:54;;;;;;;30.77;10.90;;;;;;;;;;5115426;27;20364;-75
2021/11/21 09:33:21;;;;;;;14.93;9.83;;;;;;;;;;5115010;27;20741;-73
2021/11/21 09:35:49;;;;;;;14.63;10.07;;;;;;;;;;5122045;27;20285;-75
2021/11/21 09:38:16;;;;;;;15.57;10.40;;;;;;;;;;5102201;28;20197;-75
2021/11/21 09:40:44;;;;;;;14.50;9.87;;;;;;;;;;5111465;28;20294;-74
2021/11/21 09:43:11;;;;;;;14.43;9.43;;;;;;;;;;5094739;28;20594;-75
2021/11/21 09:45:38;;;;;;;13.60;9.40;;;;;;;;;;5111326;28;20747;-75
2021/11/21 09:48:08;;;;;;;13.70;9.90;;;;;;;;;;5112210;28;20227;-75
2021/11/21 09:50:36;;;;;;;15.23;10.07;;;;;;;;;;5111756;28;20194;-73
2021/11/21 09:53:04;;;;;;;13.60;10.20;;;;;;;;;;5115178;28;20292;-75
2021/11/21 09:55:31;;;;;;;11.97;8.73;;;;;;;;;;5115399;28;20213;-73
2021/11/21 09:57:58;;;;;;;10.63;8.50;;;;;;;;;;5111240;28;20286;-75
2021/11/21 10:00:26;;;;;;;11.60;9.03;;;;;;;;;;5111525;28;20249;-75
2021/11/21 10:03:00;;;;;;;11.67;8.93;;;;;;;;;;5109171;28;20276;-75
2021/11/21 10:05:29;;;;;;;11.73;8.93;;;;;;;;;;5106506;28;20297;-75
2021/11/21 10:08:03;;;;;;;11.17;8.60;;;;;;;;;;5112375;28;20309;-75
2021/11/21 10:10:34;;;;;;;11.17;8.63;;;;;;;;;;5108241;28;20292;-75
2021/11/21 10:13:02;;;;;;;10.80;8.30;;;;;;;;;;5108173;28;20301;-75
2021/11/21 10:15:29;;;;;;;11.00;8.53;;;;;;;;;;5110775;28;20219;-75
2021/11/21 10:17:57;;;;;;;12.00;9.00;;;;;;;;;;5107855;28;20284;-75
2021/11/21 10:20:24;;;;;;;11.50;8.83;;;;;;;;;;5106960;28;20233;-75
2021/11/21 10:23:01;;;;;;;12.07;9.33;;;;;;;;;;5108747;28;20227;-75
2021/11/21 10:25:45;;;;;;;11.13;8.60;;;;;;;;;;5109802;28;20239;-75
2021/11/21 10:28:15;;;;;;;12.27;9.43;;;;;;;;;;5108718;28;20278;-75
2021/11/21 10:31:00;;;;;;;11.77;9.30;;;;;;;;;;5109255;28;20620;-74
2021/11/21 10:33:29;;;;;;;11.60;8.97;;;;;;;;;;5111739;28;20322;-75
2021/11/21 10:35:57;;;;;;;10.23;8.50;;;;;;;;;;5113760;28;20318;-75
2021/11/21 10:38:31;;;;;;;11.27;9.07;;;;;;;;;;5112235;27;20194;-75
2021/11/21 10:40:59;;;;;;;12.03;9.97;;;;;;;;;;5111518;28;20316;-75
2021/11/21 10:43:26;;;;;;;13.70;10.30;;;;;;;;;;5114403;27;20211;-75
2021/11/21 10:45:53;;;;;;;12.87;10.27;;;;;;;;;;5113458;28;20287;-75
2021/11/21 10:48:25;;;;;;;14.33;10.40;;;;;;;;;;5114215;28;20256;-75
2021/11/21 10:50:52;;;;;;;16.67;11.03;;;;;;;;;;5112717;28;20601;-75
2021/11/21 10:53:21;;;;;;;14.90;10.20;;;;;;;;;;5114218;28;20221;-75
2021/11/21 10:56:09;;;;;;;12.70;9.57;;;;;;;;;;5113819;28;20699;-75
2021/11/21 10:58:43;;;;;;;9.90;7.93;;;;;;;;;;5113622;27;20198;-74
2021/11/21 11:01:19;;;;;;;9.97;8.87;;;;;;;;;;5111708;28;20196;-76
2021/11/21 11:04:06;;;;;;;10.70;8.60;;;;;;;;;;5113018;28;20209;-75
2021/11/21 11:06:33;;;;;;;9.97;8.00;;;;;;;;;;5112062;28;20289;-75
2021/11/21 11:09:14;;;;;;;9.33;7.50;;;;;;;;;;5115136;27;20227;-75
2021/11/21 11:11:43;;;;;;;9.63;7.97;;;;;;;;;;5112079;28;20289;-75
2021/11/21 11:14:13;;;;;;;10.90;8.33;;;;;;;;;;5111444;28;20249;-75
2021/11/21 11:16:40;;;;;;;8.53;7.50;;;;;;;;;;5113138;28;20208;-75
2021/11/21 11:19:10;;;;;;;9.53;7.40;;;;;;;;;;5113728;28;20231;-74
2021/11/21 11:21:38;;;;;;;9.27;7.07;;;;;;;;;;5112422;28;20283;-75
2021/11/21 11:24:05;;;;;;;9.43;6.93;;;;;;;;;;5113421;28;20196;-75
2021/11/21 11:26:33;;;;;;;8.77;6.87;;;;;;;;;;5113465;28;20281;-74
2021/11/21 11:29:03;;;;;;;10.43;7.47;;;;;;;;;;5112864;28;20247;-75
2021/11/21 11:31:32;;;;;;;8.67;6.47;;;;;;;;;;5113784;28;20189;-75
2021/11/21 11:34:00;;;;;;;9.77;5.87;;;;;;;;;;5113632;28;20221;-75
2021/11/21 11:36:29;;;;;;;8.93;5.73;;;;;;;;;;5115448;27;20200;-75
2021/11/21 11:39:00;;;;;;;9.40;4.73;;;;;;;;;;5112726;27;20234;-75
2021/11/21 11:44:20;;;;;;;7.80;4.03;;;;;;;;;;5091361;28;20219;-75
2021/11/21 11:46:47;;;;;;;8.63;3.50;;;;;;;;;;5112883;28;20268;-75
2021/11/21 11:49:14;;;;;;;7.33;2.97;;;;;;;;;;5113533;28;20210;-75
2021/11/21 11:51:59;;;;;;;5.67;2.47;;;;;;;;;;5113801;28;20295;-78
2021/11/21 11:54:28;;;;;;;6.20;2.87;;;;;;;;;;5100990;28;20304;-77
2021/11/21 11:56:58;;;;;;;7.40;2.13;;;;;;;;;;5112990;28;20190;-78
2021/11/21 11:59:29;;;;;;;6.33;2.60;;;;;;;;;;5113597;28;20197;-78
2021/11/21 12:01:57;;;;;;;7.43;2.43;;;;;;;;;;5114302;27;20675;-77
2021/11/21 12:04:43;;;;;;;7.57;3.97;;;;;;;;;;5113553;27;20205;-78
2021/11/21 12:07:21;;;;;;;9.03;6.43;;;;;;;;;;5125408;27;20229;-78
2021/11/21 12:09:57;;;;;;;21.57;12.43;;;;;;;;;;5113598;27;20228;-78
2021/11/21 12:12:24;;;;;;;50.40;22.23;;;;;;;;;;5112269;28;20640;-78
2021/11/21 12:14:53;;;;;;;20.07;13.60;;;;;;;;;;5112992;28;20250;-78
2021/11/21 12:17:25;;;;;;;10.57;5.77;;;;;;;;;;5113174;28;20276;-77
2021/11/21 12:19:53;;;;;;;9.57;5.50;;;;;;;;;;5113458;28;20279;-80
2021/11/21 12:22:37;;;;;;;18.33;14.47;;;;;;;;;;5113278;28;20231;-80
2021/11/21 12:25:06;;;;;;;17.63;14.10;;;;;;;;;;5100296;28;20198;-77
2021/11/21 12:27:36;;;;;;;13.40;10.80;;;;;;;;;;5112877;28;20253;-77
2021/11/21 12:30:07;;;;;;;29.07;24.70;;;;;;;;;;5115898;27;21821;-78
2021/11/21 12:32:35;;;;;;;17.83;11.93;;;;;;;;;;5116175;27;20233;-78
2021/11/21 12:35:02;;;;;;;18.47;14.40;;;;;;;;;;5112875;28;20757;-77
2021/11/21 12:37:38;;;;;;;24.63;18.17;;;;;;;;;;5113638;28;20203;-77
2021/11/21 12:40:13;;;;;;;12.50;9.00;;;;;;;;;;5112669;28;20195;-77
2021/11/21 12:42:42;;;;;;;6.97;4.13;;;;;;;;;;5112504;28;20208;-77
2021/11/21 12:45:13;;;;;;;15.10;11.03;;;;;;;;;;5105316;28;20757;-78
2021/11/21 12:47:40;;;;;;;15.43;8.33;;;;;;;;;;5109892;27;20210;-78
2021/11/21 12:50:09;;;;;;;9.47;5.23;;;;;;;;;;5112046;28;20221;-78
2021/11/21 12:52:49;;;;;;;6.97;4.10;;;;;;;;;;5112634;28;20198;-77
2021/11/21 12:55:17;;;;;;;17.97;12.00;;;;;;;;;;5108655;28;20208;-77
2021/11/21 12:57:47;;;;;;;9.57;4.17;;;;;;;;;;5112098;27;20649;-77
2021/11/21 13:00:17;;;;;;;10.30;5.20;;;;;;;;;;5111352;27;20201;-77
2021/11/21 13:02:44;;;;;;;15.83;12.67;;;;;;;;;;5112760;28;20193;-77
2021/11/21 13:05:11;;;;;;;4.93;2.60;;;;;;;;;;5117065;27;20204;-77
2021/11/21 13:07:39;;;;;;;13.87;11.10;;;;;;;;;;5112988;28;20249;-77
2021/11/21 13:10:09;;;;;;;73.60;58.23;;;;;;;;;;5110559;28;20655;-77
2021/11/21 13:12:38;;;;;;;90.83;72.13;;;;;;;;;;5111378;28;20281;-77
2021/11/21 13:15:07;;;;;;;16.83;14.93;;;;;;;;;;5111879;28;20665;-77
2021/11/21 13:17:36;;;;;;;10.17;5.87;;;;;;;;;;5110082;28;20282;-77
2021/11/21 13:20:07;;;;;;;12.53;7.17;;;;;;;;;;5111631;28;20222;-77
2021/11/21 13:22:47;;;;;;;26.33;20.50;;;;;;;;;;5110094;28;20325;-77
2021/11/21 13:25:26;;;;;;;7.17;5.03;;;;;;;;;;5118136;27;20264;-77
2021/11/21 13:27:54;;;;;;;46.53;34.37;;;;;;;;;;5112373;28;20328;-77
2021/11/21 13:30:21;;;;;;;15.73;11.47;;;;;;;;;;5111230;28;20578;-77
2021/11/21 13:32:50;;;;;;;17.67;11.63;;;;;;;;;;5111905;28;20300;-77
2021/11/21 13:35:19;;;;;;;14.63;9.83;;;;;;;;;;5111698;28;20204;-76
2021/11/21 13:37:46;;;;;;;12.07;8.53;;;;;;;;;;5111120;28;20201;-77
2021/11/21 13:40:14;;;;;;;14.27;10.83;;;;;;;;;;5093901;28;20226;-75
2021/11/21 13:42:42;;;;;;;22.77;15.97;;;;;;;;;;5110133;28;20240;-75
2021/11/21 13:45:09;;;;;;;10.90;7.10;;;;;;;;;;5110937;28;20233;-75
2021/11/21 13:48:00;;;;;;;12.40;9.20;;;;;;;;;;5107884;28;20728;-75
2021/11/21 13:50:30;;;;;;;14.60;9.13;;;;;;;;;;5093762;28;20193;-74
2021/11/21 13:52:58;;;;;;;9.93;5.93;;;;;;;;;;5108488;28;20205;-75
2021/11/21 13:55:26;;;;;;;23.17;13.90;;;;;;;;;;5110512;28;20193;-75
2021/11/21 13:57:54;;;;;;;29.80;16.50;;;;;;;;;;5110909;28;20194;-75
2021/11/21 14:00:25;;;;;;;28.80;13.87;;;;;;;;;;5112983;28;20630;-76
2021/11/21 14:02:57;;;;;;;21.13;11.93;;;;;;;;;;5114277;28;20250;-75
2021/11/21 14:05:25;;;;;;;9.13;4.07;;;;;;;;;;5106787;28;20219;-75
2021/11/21 14:07:55;;;;;;;5.77;2.70;;;;;;;;;;5107118;28;20237;-76
2021/11/21 14:10:24;;;;;;;6.20;2.77;;;;;;;;;;5114028;28;20202;-75
2021/11/21 14:12:52;;;;;;;6.87;2.10;;;;;;;;;;5114886;27;20298;-75
2021/11/21 14:15:21;;;;;;;5.97;2.60;;;;;;;;;;5112532;28;20307;-75
2021/11/21 14:17:49;;;;;;;11.90;8.33;;;;;;;;;;5114884;28;20544;-76
2021/11/21 14:20:28;;;;;;;6.97;4.60;;;;;;;;;;5113737;28;20321;-75
2021/11/21 14:23:02;;;;;;;7.43;3.10;;;;;;;;;;5113119;28;20745;-75
2021/11/21 14:25:30;;;;;;;4.67;2.43;;;;;;;;;;5115736;27;20289;-75
2021/11/21 14:28:02;;;;;;;7.87;3.27;;;;;;;;;;5114165;28;20278;-76
2021/11/21 14:30:29;;;;;;;6.23;2.60;;;;;;;;;;5115045;28;20218;-75
2021/11/21 14:33:12;;;;;;;8.73;4.13;;;;;;;;;;5116749;27;20292;-76